Terminal Aerodrome Forecast
Issued by NWS

Current Version | Previous Version | Text Only | Print | Product List | Glossary Off
Versions: 1 2 3 4 5 6 7 8 9 10 11 12 13 14 15 16 17 18 19 20 21 22 23 24 25 26 27 28

077
FTUS41 KRNK 072346 CCA
TAFLWB
TAF COR
KLWB 072346Z 0800/0824 VRB03KT P6SM SCT250
     FM080900 00000KT P6SM SCT090 BKN150
     FM081300 VRB03KT 6SM -SN SCT035 OVC050
     FM081600 16005KT 4SM -SN BR SCT020 OVC030
      TEMPO 0818/0822 1SM -SN BR OVC018
     FM082200 26006KT 5SM -SHSN OVC018=

USA.gov is the U.S. government's official web portal to all federal, state and local government web resources and services.